Allen, Kansas
Current Conditions -  °F | °C
As of 11:53 PM on Wednesday 22 Oct 2014 (Local Time) from KEMP Reporting Station
Overcast Overcast  
Wind Chill: 62°   Ceiling: 4700
Heat Index: 62°   Visibility: 10mi
Dew Point: 59°   Wind: 0mph
Humidity: 90%   Direction: NA
Pressure: 30.08"   Gusts: NA
Location:  38.66°N, 96.17°W
Report Text: KEMP 230453Z AUTO 00000KT 10SM BKN047 BKN070 OVC090 17/15 A3008 RMK AO2 RAE46 SLP182 P0000 T01670150
Loading
Personal Weather Stations






























Interactive Weather Map New forecast layout! Learn more

10-Day Weather Forecast

Advertisements
Track Severe Weather on mobile